Terminal Aerodrome Forecast
Issued by NWS Shreveport, LA

Current Version | Previous Version | Text Only | Print | Product List | Glossary On
Versions: 1 2 3 4 5 6 7 8 9 10 11 12 13
828
FTUS44 KSHV 102340
TAFGGG
TAF
KGGG 102340Z 1100/1124 22008KT P6SM SKC
     FM111500 25009KT P6SM FEW300
     FM112300 32006KT P6SM SCT250=

USA.gov is the U.S. government's official web portal to all federal, state and local government web resources and services.